sensor_id;sensor_type;location;lat;lon;timestamp;pressure;altitude;pressure_sealevel;temperature;humidity
10470;BME280;5282;47.052;15.458;2024-02-21T00:01:48;98472.53;;;2.27;100.00
10470;BME280;5282;47.052;15.458;2024-02-21T00:04:15;98469.53;;;2.33;100.00
10470;BME280;5282;47.052;15.458;2024-02-21T00:06:42;98467.81;;;2.32;100.00
10470;BME280;5282;47.052;15.458;2024-02-21T00:09:09;98470.81;;;2.11;100.00
10470;BME280;5282;47.052;15.458;2024-02-21T00:11:37;98469.78;;;1.83;100.00
10470;BME280;5282;47.052;15.458;2024-02-21T00:14:04;98470.31;;;1.74;100.00
10470;BME280;5282;47.052;15.458;2024-02-21T00:16:32;98468.53;;;1.59;100.00
10470;BME280;5282;47.052;15.458;2024-02-21T00:18:59;98469.41;;;1.59;100.00
10470;BME280;5282;47.052;15.458;2024-02-21T00:21:25;98467.41;;;1.63;100.00
10470;BME280;5282;47.052;15.458;2024-02-21T00:23:52;98465.06;;;1.42;100.00
10470;BME280;5282;47.052;15.458;2024-02-21T00:26:21;98463.00;;;1.31;100.00
10470;BME280;5282;47.052;15.458;2024-02-21T00:28:51;98461.22;;;1.32;100.00
10470;BME280;5282;47.052;15.458;2024-02-21T00:31:18;98459.72;;;1.58;100.00
10470;BME280;5282;47.052;15.458;2024-02-21T00:33:45;98459.81;;;1.87;100.00
10470;BME280;5282;47.052;15.458;2024-02-21T00:36:11;98461.84;;;1.98;100.00
10470;BME280;5282;47.052;15.458;2024-02-21T00:38:40;98455.88;;;1.94;100.00
10470;BME280;5282;47.052;15.458;2024-02-21T00:41:07;98458.69;;;1.91;100.00
10470;BME280;5282;47.052;15.458;2024-02-21T00:43:34;98466.78;;;1.90;100.00
10470;BME280;5282;47.052;15.458;2024-02-21T00:46:02;98465.19;;;2.02;100.00
10470;BME280;5282;47.052;15.458;2024-02-21T00:48:29;98460.69;;;2.18;100.00
10470;BME280;5282;47.052;15.458;2024-02-21T00:50:56;98449.56;;;2.11;100.00
10470;BME280;5282;47.052;15.458;2024-02-21T00:53:23;98446.91;;;2.11;100.00
10470;BME280;5282;47.052;15.458;2024-02-21T00:55:50;98452.16;;;1.97;100.00
10470;BME280;5282;47.052;15.458;2024-02-21T00:58:17;98445.31;;;1.78;100.00
10470;BME280;5282;47.052;15.458;2024-02-21T01:00:44;98445.88;;;1.83;100.00
10470;BME280;5282;47.052;15.458;2024-02-21T01:03:12;98442.28;;;1.84;100.00
10470;BME280;5282;47.052;15.458;2024-02-21T01:05:40;98443.44;;;1.95;100.00
10470;BME280;5282;47.052;15.458;2024-02-21T01:08:13;98445.63;;;2.03;100.00
10470;BME280;5282;47.052;15.458;2024-02-21T01:10:41;98451.34;;;2.11;100.00
10470;BME280;5282;47.052;15.458;2024-02-21T01:13:14;98450.72;;;2.22;100.00
10470;BME280;5282;47.052;15.458;2024-02-21T01:15:42;98443.22;;;2.28;100.00
10470;BME280;5282;47.052;15.458;2024-02-21T01:18:14;98440.84;;;2.38;100.00
10470;BME280;5282;47.052;15.458;2024-02-21T01:20:41;98439.44;;;2.47;100.00
10470;BME280;5282;47.052;15.458;2024-02-21T01:23:09;98433.72;;;2.53;100.00
10470;BME280;5282;47.052;15.458;2024-02-21T01:25:36;98426.63;;;2.54;100.00
10470;BME280;5282;47.052;15.458;2024-02-21T01:28:03;98433.63;;;2.40;100.00
10470;BME280;5282;47.052;15.458;2024-02-21T01:30:30;98431.66;;;2.29;100.00
10470;BME280;5282;47.052;15.458;2024-02-21T01:32:57;98429.19;;;2.41;100.00
10470;BME280;5282;47.052;15.458;2024-02-21T01:35:25;98432.66;;;2.27;100.00
10470;BME280;5282;47.052;15.458;2024-02-21T01:37:53;98431.53;;;2.16;100.00
10470;BME280;5282;47.052;15.458;2024-02-21T01:40:20;98432.66;;;2.27;100.00
10470;BME280;5282;47.052;15.458;2024-02-21T01:42:46;98435.25;;;2.43;100.00
10470;BME280;5282;47.052;15.458;2024-02-21T01:45:14;98425.09;;;2.64;100.00
10470;BME280;5282;47.052;15.458;2024-02-21T01:47:41;98428.28;;;2.84;100.00
10470;BME280;5282;47.052;15.458;2024-02-21T01:50:09;98433.19;;;2.62;100.00
10470;BME280;5282;47.052;15.458;2024-02-21T01:52:37;98435.34;;;2.56;100.00
10470;BME280;5282;47.052;15.458;2024-02-21T01:55:07;98427.00;;;2.62;100.00
10470;BME280;5282;47.052;15.458;2024-02-21T01:57:34;98426.69;;;2.67;100.00
10470;BME280;5282;47.052;15.458;2024-02-21T02:00:01;98403.69;;;2.80;100.00
10470;BME280;5282;47.052;15.458;2024-02-21T02:02:29;98396.75;;;2.92;100.00
10470;BME280;5282;47.052;15.458;2024-02-21T02:04:56;98419.97;;;2.61;100.00
10470;BME280;5282;47.052;15.458;2024-02-21T02:07:26;98411.59;;;2.82;100.00
10470;BME280;5282;47.052;15.458;2024-02-21T02:09:54;98397.47;;;3.08;100.00
10470;BME280;5282;47.052;15.458;2024-02-21T02:12:21;98407.22;;;2.81;100.00
10470;BME280;5282;47.052;15.458;2024-02-21T02:14:57;98412.16;;;2.72;100.00
10470;BME280;5282;47.052;15.458;2024-02-21T02:17:25;98407.59;;;2.89;100.00
10470;BME280;5282;47.052;15.458;2024-02-21T02:19:51;98395.38;;;3.14;100.00
10470;BME280;5282;47.052;15.458;2024-02-21T02:22:22;98379.91;;;3.33;100.00
10470;BME280;5282;47.052;15.458;2024-02-21T02:24:53;98401.38;;;3.03;100.00
10470;BME280;5282;47.052;15.458;2024-02-21T02:27:19;98393.81;;;2.82;100.00
10470;BME280;5282;47.052;15.458;2024-02-21T02:29:48;98386.38;;;3.02;100.00
10470;BME280;5282;47.052;15.458;2024-02-21T02:32:15;98395.69;;;3.09;100.00
10470;BME280;5282;47.052;15.458;2024-02-21T02:34:42;98406.63;;;3.04;100.00
10470;BME280;5282;47.052;15.458;2024-02-21T02:37:09;98397.59;;;2.92;100.00
10470;BME280;5282;47.052;15.458;2024-02-21T02:39:36;98379.09;;;3.18;100.00
10470;BME280;5282;47.052;15.458;2024-02-21T02:42:05;98391.59;;;3.03;100.00
10470;BME280;5282;47.052;15.458;2024-02-21T02:44:32;98398.47;;;2.93;100.00
10470;BME280;5282;47.052;15.458;2024-02-21T02:46:58;98391.91;;;2.99;100.00
10470;BME280;5282;47.052;15.458;2024-02-21T02:49:26;98388.81;;;3.19;100.00
10470;BME280;5282;47.052;15.458;2024-02-21T02:51:52;98382.59;;;3.19;100.00
10470;BME280;5282;47.052;15.458;2024-02-21T02:54:19;98390.56;;;3.06;100.00
10470;BME280;5282;47.052;15.458;2024-02-21T02:56:46;98372.34;;;3.27;100.00
10470;BME280;5282;47.052;15.458;2024-02-21T02:59:14;98375.03;;;3.40;100.00
10470;BME280;5282;47.052;15.458;2024-02-21T03:01:41;98382.50;;;2.93;100.00
10470;BME280;5282;47.052;15.458;2024-02-21T03:04:10;98373.31;;;2.84;100.00
10470;BME280;5282;47.052;15.458;2024-02-21T03:06:37;98372.66;;;2.81;100.00
10470;BME280;5282;47.052;15.458;2024-02-21T03:09:04;98376.28;;;2.80;100.00
10470;BME280;5282;47.052;15.458;2024-02-21T03:11:35;98378.34;;;2.89;100.00
10470;BME280;5282;47.052;15.458;2024-02-21T03:14:02;98374.88;;;3.01;100.00
10470;BME280;5282;47.052;15.458;2024-02-21T03:16:30;98364.53;;;3.24;100.00
10470;BME280;5282;47.052;15.458;2024-02-21T03:18:57;98367.97;;;3.26;100.00
10470;BME280;5282;47.052;15.458;2024-02-21T03:21:24;98374.44;;;2.95;100.00
10470;BME280;5282;47.052;15.458;2024-02-21T03:23:54;98365.94;;;3.02;100.00
10470;BME280;5282;47.052;15.458;2024-02-21T03:26:23;98363.34;;;3.15;100.00
10470;BME280;5282;47.052;15.458;2024-02-21T03:28:51;98372.44;;;2.84;100.00
10470;BME280;5282;47.052;15.458;2024-02-21T03:31:21;98370.31;;;3.03;100.00
10470;BME280;5282;47.052;15.458;2024-02-21T03:33:49;98365.81;;;3.18;100.00
10470;BME280;5282;47.052;15.458;2024-02-21T03:36:20;98376.25;;;3.21;100.00
10470;BME280;5282;47.052;15.458;2024-02-21T03:38:46;98369.69;;;3.27;100.00
10470;BME280;5282;47.052;15.458;2024-02-21T03:41:14;98371.59;;;3.25;100.00
10470;BME280;5282;47.052;15.458;2024-02-21T03:43:41;98382.25;;;3.11;100.00
10470;BME280;5282;47.052;15.458;2024-02-21T03:46:08;98372.06;;;3.17;100.00
10470;BME280;5282;47.052;15.458;2024-02-21T03:48:36;98365.38;;;3.24;100.00
10470;BME280;5282;47.052;15.458;2024-02-21T03:51:04;98366.78;;;3.30;100.00
10470;BME280;5282;47.052;15.458;2024-02-21T03:53:31;98363.03;;;3.20;100.00
10470;BME280;5282;47.052;15.458;2024-02-21T03:56:01;98365.22;;;2.86;100.00
10470;BME280;5282;47.052;15.458;2024-02-21T03:58:29;98359.72;;;2.74;100.00
10470;BME280;5282;47.052;15.458;2024-02-21T04:00:56;98355.13;;;2.64;100.00
10470;BME280;5282;47.052;15.458;2024-02-21T04:03:23;98351.75;;;2.74;100.00
10470;BME280;5282;47.052;15.458;2024-02-21T04:05:50;98349.06;;;2.47;100.00
10470;BME280;5282;47.052;15.458;2024-02-21T04:08:21;98352.38;;;2.36;100.00
10470;BME280;5282;47.052;15.458;2024-02-21T04:10:49;98353.72;;;2.29;100.00
10470;BME280;5282;47.052;15.458;2024-02-21T04:13:16;98350.56;;;2.22;100.00
10470;BME280;5282;47.052;15.458;2024-02-21T04:15:44;98350.94;;;2.45;100.00
10470;BME280;5282;47.052;15.458;2024-02-21T04:18:11;98347.69;;;2.54;100.00
10470;BME280;5282;47.052;15.458;2024-02-21T04:20:37;98348.41;;;2.43;100.00
10470;BME280;5282;47.052;15.458;2024-02-21T04:23:04;98347.44;;;2.30;100.00
10470;BME280;5282;47.052;15.458;2024-02-21T04:25:32;98347.44;;;2.30;100.00
10470;BME280;5282;47.052;15.458;2024-02-21T04:27:59;98349.44;;;2.41;100.00
10470;BME280;5282;47.052;15.458;2024-02-21T04:30:26;98349.16;;;2.45;100.00
10470;BME280;5282;47.052;15.458;2024-02-21T04:32:53;98348.94;;;2.63;100.00
10470;BME280;5282;47.052;15.458;2024-02-21T04:35:20;98346.44;;;2.74;100.00
10470;BME280;5282;47.052;15.458;2024-02-21T04:37:47;98352.34;;;2.65;100.00
10470;BME280;5282;47.052;15.458;2024-02-21T04:40:14;98346.38;;;2.76;100.00
10470;BME280;5282;47.052;15.458;2024-02-21T04:42:43;98348.09;;;2.62;100.00
10470;BME280;5282;47.052;15.458;2024-02-21T04:45:11;98342.84;;;2.75;100.00
10470;BME280;5282;47.052;15.458;2024-02-21T04:47:38;98338.88;;;2.68;100.00
10470;BME280;5282;47.052;15.458;2024-02-21T04:50:05;98337.47;;;2.62;100.00
10470;BME280;5282;47.052;15.458;2024-02-21T04:52:32;98339.56;;;2.85;100.00
10470;BME280;5282;47.052;15.458;2024-02-21T04:54:59;98342.03;;;2.88;100.00
10470;BME280;5282;47.052;15.458;2024-02-21T04:57:26;98330.84;;;2.83;100.00
10470;BME280;5282;47.052;15.458;2024-02-21T04:59:54;98342.44;;;2.82;100.00
10470;BME280;5282;47.052;15.458;2024-02-21T05:02:21;98332.09;;;2.77;100.00
10470;BME280;5282;47.052;15.458;2024-02-21T05:04:49;98328.16;;;2.83;100.00
10470;BME280;5282;47.052;15.458;2024-02-21T05:07:16;98336.25;;;2.81;100.00
10470;BME280;5282;47.052;15.458;2024-02-21T05:09:45;98335.03;;;2.72;100.00
10470;BME280;5282;47.052;15.458;2024-02-21T05:12:12;98334.50;;;2.67;100.00
10470;BME280;5282;47.052;15.458;2024-02-21T05:14:38;98333.16;;;2.60;100.00
10470;BME280;5282;47.052;15.458;2024-02-21T05:17:07;98331.19;;;2.49;100.00
10470;BME280;5282;47.052;15.458;2024-02-21T05:19:34;98325.69;;;2.52;100.00
10470;BME280;5282;47.052;15.458;2024-02-21T05:22:00;98337.81;;;2.56;100.00
10470;BME280;5282;47.052;15.458;2024-02-21T05:24:27;98329.94;;;2.69;100.00
10470;BME280;5282;47.052;15.458;2024-02-21T05:26:55;98337.06;;;2.69;100.00
10470;BME280;5282;47.052;15.458;2024-02-21T05:29:22;98329.94;;;2.69;100.00
10470;BME280;5282;47.052;15.458;2024-02-21T05:31:56;98326.53;;;2.67;100.00
10470;BME280;5282;47.052;15.458;2024-02-21T05:34:25;98332.50;;;2.71;100.00
10470;BME280;5282;47.052;15.458;2024-02-21T05:36:52;98329.09;;;2.54;100.00
10470;BME280;5282;47.052;15.458;2024-02-21T05:39:19;98316.31;;;2.46;100.00
10470;BME280;5282;47.052;15.458;2024-02-21T05:41:48;98319.69;;;2.49;100.00
10470;BME280;5282;47.052;15.458;2024-02-21T05:44:16;98325.97;;;2.47;100.00
10470;BME280;5282;47.052;15.458;2024-02-21T05:46:43;98319.63;;;2.36;100.00
10470;BME280;5282;47.052;15.458;2024-02-21T05:49:10;98322.59;;;2.31;100.00
10470;BME280;5282;47.052;15.458;2024-02-21T05:51:39;98325.78;;;2.36;100.00
10470;BME280;5282;47.052;15.458;2024-02-21T05:54:05;98332.91;;;2.36;100.00
10470;BME280;5282;47.052;15.458;2024-02-21T05:56:33;98329.25;;;2.24;100.00
10470;BME280;5282;47.052;15.458;2024-02-21T05:59:00;98326.66;;;2.22;100.00
10470;BME280;5282;47.052;15.458;2024-02-21T06:01:27;98327.81;;;2.18;100.00
10470;BME280;5282;47.052;15.458;2024-02-21T06:03:54;98320.09;;;2.13;100.00
10470;BME280;5282;47.052;15.458;2024-02-21T06:06:21;98324.41;;;2.16;100.00
10470;BME280;5282;47.052;15.458;2024-02-21T06:08:50;98321.81;;;2.14;100.00
10470;BME280;5282;47.052;15.458;2024-02-21T06:11:17;98316.81;;;1.95;100.00
10470;BME280;5282;47.052;15.458;2024-02-21T06:13:44;98314.59;;;2.02;100.00
10470;BME280;5282;47.052;15.458;2024-02-21T06:16:11;98310.63;;;1.95;100.00
10470;BME280;5282;47.052;15.458;2024-02-21T06:18:38;98308.16;;;2.06;100.00
10470;BME280;5282;47.052;15.458;2024-02-21T06:21:05;98307.69;;;1.99;100.00
10470;BME280;5282;47.052;15.458;2024-02-21T06:23:32;98306.84;;;1.99;100.00
10470;BME280;5282;47.052;15.458;2024-02-21T06:26:00;98317.47;;;1.99;100.00
10470;BME280;5282;47.052;15.458;2024-02-21T06:28:27;98316.50;;;2.14;100.00
10470;BME280;5282;47.052;15.458;2024-02-21T06:30:54;98316.31;;;2.32;100.00
10470;BME280;5282;47.052;15.458;2024-02-21T06:33:21;98315.91;;;2.38;100.00
10470;BME280;5282;47.052;15.458;2024-02-21T06:35:50;98318.66;;;2.51;100.00
10470;BME280;5282;47.052;15.458;2024-02-21T06:38:19;98326.72;;;2.50;100.00
10470;BME280;5282;47.052;15.458;2024-02-21T06:40:46;98328.25;;;2.39;100.00
10470;BME280;5282;47.052;15.458;2024-02-21T06:43:18;98327.78;;;2.47;100.00
10470;BME280;5282;47.052;15.458;2024-02-21T06:45:45;98328.72;;;2.46;100.00
10470;BME280;5282;47.052;15.458;2024-02-21T06:48:17;98335.47;;;2.52;100.00
10470;BME280;5282;47.052;15.458;2024-02-21T06:50:45;98339.81;;;2.67;100.00
10470;BME280;5282;47.052;15.458;2024-02-21T06:53:12;98343.56;;;2.92;100.00
10470;BME280;5282;47.052;15.458;2024-02-21T06:55:39;98339.34;;;3.02;100.00
10470;BME280;5282;47.052;15.458;2024-02-21T06:58:05;98343.72;;;3.03;100.00
10470;BME280;5282;47.052;15.458;2024-02-21T07:00:39;98344.72;;;3.15;100.00
10470;BME280;5282;47.052;15.458;2024-02-21T07:03:06;98337.69;;;3.14;100.00
10470;BME280;5282;47.052;15.458;2024-02-21T07:05:33;98338.31;;;3.18;100.00
10470;BME280;5282;47.052;15.458;2024-02-21T07:08:00;98344.91;;;3.12;100.00
10470;BME280;5282;47.052;15.458;2024-02-21T07:10:27;98332.94;;;3.32;100.00
10470;BME280;5282;47.052;15.458;2024-02-21T07:12:54;98330.28;;;3.32;100.00
10470;BME280;5282;47.052;15.458;2024-02-21T07:15:21;98327.75;;;3.44;100.00
10470;BME280;5282;47.052;15.458;2024-02-21T07:17:49;98329.19;;;3.62;100.00
10470;BME280;5282;47.052;15.458;2024-02-21T07:20:16;98325.97;;;3.70;100.00
10470;BME280;5282;47.052;15.458;2024-02-21T07:22:45;98326.75;;;3.85;100.00
10470;BME280;5282;47.052;15.458;2024-02-21T07:25:12;98326.00;;;3.83;100.00
10470;BME280;5282;47.052;15.458;2024-02-21T07:27:39;98332.69;;;3.76;100.00
10470;BME280;5282;47.052;15.458;2024-02-21T07:30:08;98330.59;;;3.81;100.00
10470;BME280;5282;47.052;15.458;2024-02-21T07:32:35;98326.63;;;3.99;100.00
10470;BME280;5282;47.052;15.458;2024-02-21T07:35:04;98323.13;;;4.12;100.00
10470;BME280;5282;47.052;15.458;2024-02-21T07:37:36;98308.81;;;4.26;100.00
10470;BME280;5282;47.052;15.458;2024-02-21T07:40:05;98314.06;;;4.27;100.00
10470;BME280;5282;47.052;15.458;2024-02-21T07:42:32;98316.28;;;4.33;100.00
10470;BME280;5282;47.052;15.458;2024-02-21T07:44:59;98302.19;;;4.31;100.00
10470;BME280;5282;47.052;15.458;2024-02-21T07:47:26;98309.78;;;4.38;100.00
10470;BME280;5282;47.052;15.458;2024-02-21T07:49:53;98300.69;;;4.53;100.00
10470;BME280;5282;47.052;15.458;2024-02-21T07:56:23;98293.09;;;4.84;100.00
10470;BME280;5282;47.052;15.458;2024-02-21T07:58:51;98293.66;;;4.76;100.00
10470;BME280;5282;47.052;15.458;2024-02-21T08:01:18;98290.72;;;4.92;100.00
10470;BME280;5282;47.052;15.458;2024-02-21T08:03:46;98286.56;;;5.13;100.00
10470;BME280;5282;47.052;15.458;2024-02-21T08:06:14;98282.16;;;5.00;100.00
10470;BME280;5282;47.052;15.458;2024-02-21T08:08:41;98281.63;;;5.19;100.00
10470;BME280;5282;47.052;15.458;2024-02-21T08:11:08;98285.31;;;5.30;100.00
10470;BME280;5282;47.052;15.458;2024-02-21T08:13:36;98283.06;;;5.23;100.00
10470;BME280;5282;47.052;15.458;2024-02-21T08:16:03;98286.03;;;5.32;100.00
10470;BME280;5282;47.052;15.458;2024-02-21T08:18:30;98276.38;;;5.42;100.00
10470;BME280;5282;47.052;15.458;2024-02-21T08:20:59;98283.19;;;5.46;100.00
10470;BME280;5282;47.052;15.458;2024-02-21T08:23:26;98280.13;;;5.39;100.00
10470;BME280;5282;47.052;15.458;2024-02-21T08:25:53;98279.56;;;5.23;100.00
10470;BME280;5282;47.052;15.458;2024-02-21T08:28:20;98271.03;;;5.42;100.00
10470;BME280;5282;47.052;15.458;2024-02-21T08:30:48;98273.03;;;5.74;100.00
10470;BME280;5282;47.052;15.458;2024-02-21T08:33:15;98273.28;;;5.82;100.00
10470;BME280;5282;47.052;15.458;2024-02-21T08:35:42;98269.53;;;5.96;100.00
10470;BME280;5282;47.052;15.458;2024-02-21T08:38:09;98270.94;;;6.13;100.00
10470;BME280;5282;47.052;15.458;2024-02-21T08:40:36;98278.44;;;6.31;100.00
10470;BME280;5282;47.052;15.458;2024-02-21T08:43:03;98274.78;;;6.43;100.00
10470;BME280;5282;47.052;15.458;2024-02-21T08:45:30;98268.25;;;6.36;100.00
10470;BME280;5282;47.052;15.458;2024-02-21T08:47:58;98262.38;;;6.42;100.00
10470;BME280;5282;47.052;15.458;2024-02-21T08:50:25;98259.47;;;6.34;100.00
10470;BME280;5282;47.052;15.458;2024-02-21T08:52:52;98269.22;;;6.35;100.00
10470;BME280;5282;47.052;15.458;2024-02-21T08:55:19;98269.06;;;6.37;100.00
10470;BME280;5282;47.052;15.458;2024-02-21T08:57:46;98267.63;;;6.32;100.00
10470;BME280;5282;47.052;15.458;2024-02-21T09:00:14;98262.88;;;6.47;100.00
10470;BME280;5282;47.052;15.458;2024-02-21T09:02:42;98260.44;;;6.56;100.00
10470;BME280;5282;47.052;15.458;2024-02-21T09:05:10;98262.00;;;6.47;100.00
10470;BME280;5282;47.052;15.458;2024-02-21T09:07:37;98250.91;;;6.63;100.00
10470;BME280;5282;47.052;15.458;2024-02-21T09:10:05;98258.19;;;6.84;99.25
10470;BME280;5282;47.052;15.458;2024-02-21T09:12:32;98257.88;;;6.98;92.96
10470;BME280;5282;47.052;15.458;2024-02-21T09:14:59;98251.78;;;7.07;87.94
10470;BME280;5282;47.052;15.458;2024-02-21T09:17:26;98252.91;;;6.93;89.58
10470;BME280;5282;47.052;15.458;2024-02-21T09:19:54;98251.28;;;7.02;94.15
10470;BME280;5282;47.052;15.458;2024-02-21T09:22:26;98238.00;;;7.33;92.29
10470;BME280;5282;47.052;15.458;2024-02-21T09:24:52;98240.38;;;7.48;94.93
10470;BME280;5282;47.052;15.458;2024-02-21T09:27:19;98241.50;;;7.97;87.71
10470;BME280;5282;47.052;15.458;2024-02-21T09:29:48;98233.00;;;7.92;81.35
10470;BME280;5282;47.052;15.458;2024-02-21T09:32:14;98238.06;;;7.85;83.77
10470;BME280;5282;47.052;15.458;2024-02-21T09:34:41;98239.09;;;7.73;82.08
10470;BME280;5282;47.052;15.458;2024-02-21T09:37:08;98238.03;;;8.07;79.57
10470;BME280;5282;47.052;15.458;2024-02-21T09:39:36;98227.06;;;7.88;77.09
10470;BME280;5282;47.052;15.458;2024-02-21T09:42:06;98227.34;;;8.16;79.08
10470;BME280;5282;47.052;15.458;2024-02-21T09:44:36;98225.13;;;8.31;75.24
10470;BME280;5282;47.052;15.458;2024-02-21T09:47:06;98216.72;;;8.15;73.18
10470;BME280;5282;47.052;15.458;2024-02-21T09:49:34;98217.34;;;8.28;74.64
10470;BME280;5282;47.052;15.458;2024-02-21T09:52:04;98212.75;;;8.09;74.15
10470;BME280;5282;47.052;15.458;2024-02-21T09:54:33;98205.94;;;7.95;74.01
10470;BME280;5282;47.052;15.458;2024-02-21T09:57:03;98209.97;;;8.11;75.36
10470;BME280;5282;47.052;15.458;2024-02-21T09:59:32;98209.03;;;8.31;70.62
10470;BME280;5282;47.052;15.458;2024-02-21T10:02:01;98206.72;;;8.58;70.84
10470;BME280;5282;47.052;15.458;2024-02-21T10:04:29;98203.56;;;8.43;68.79
10470;BME280;5282;47.052;15.458;2024-02-21T10:06:56;98202.47;;;8.55;71.10
10470;BME280;5282;47.052;15.458;2024-02-21T10:09:23;98197.28;;;8.73;68.38
10470;BME280;5282;47.052;15.458;2024-02-21T10:11:53;98197.72;;;8.88;69.53
10470;BME280;5282;47.052;15.458;2024-02-21T10:14:22;98203.06;;;8.98;66.13
10470;BME280;5282;47.052;15.458;2024-02-21T10:16:57;98203.81;;;8.90;65.98
10470;BME280;5282;47.052;15.458;2024-02-21T10:19:25;98193.19;;;8.99;65.74
10470;BME280;5282;47.052;15.458;2024-02-21T10:22:10;98196.16;;;9.05;64.04
10470;BME280;5282;47.052;15.458;2024-02-21T10:24:37;98185.97;;;8.79;64.14
10470;BME280;5282;47.052;15.458;2024-02-21T10:27:07;98182.16;;;8.92;63.45
10470;BME280;5282;47.052;15.458;2024-02-21T10:29:38;98180.75;;;8.88;63.95
10470;BME280;5282;47.052;15.458;2024-02-21T10:32:06;98181.84;;;8.75;64.61
10470;BME280;5282;47.052;15.458;2024-02-21T10:34:33;98180.75;;;8.88;66.20
10470;BME280;5282;47.052;15.458;2024-02-21T10:37:01;98175.06;;;8.81;64.88
10470;BME280;5282;47.052;15.458;2024-02-21T10:39:31;98170.25;;;8.65;65.98
10470;BME280;5282;47.052;15.458;2024-02-21T10:42:00;98173.25;;;8.82;64.47
10470;BME280;5282;47.052;15.458;2024-02-21T10:44:30;98160.09;;;8.78;64.43
10470;BME280;5282;47.052;15.458;2024-02-21T10:46:58;98154.31;;;8.83;64.90
10470;BME280;5282;47.052;15.458;2024-02-21T10:49:26;98154.72;;;9.08;63.01
10470;BME280;5282;47.052;15.458;2024-02-21T10:51:55;98147.22;;;9.11;63.08
10470;BME280;5282;47.052;15.458;2024-02-21T10:54:42;98134.38;;;9.63;63.75
10470;BME280;5282;47.052;15.458;2024-02-21T10:57:12;98126.66;;;10.15;59.75
10470;BME280;5282;47.052;15.458;2024-02-21T10:59:40;98121.13;;;10.81;58.52
10470;BME280;5282;47.052;15.458;2024-02-21T11:02:08;98114.06;;;11.24;55.83
10470;BME280;5282;47.052;15.458;2024-02-21T11:04:35;98115.28;;;11.30;54.13
10470;BME280;5282;47.052;15.458;2024-02-21T11:07:04;98099.94;;;11.31;53.44
10470;BME280;5282;47.052;15.458;2024-02-21T11:09:33;98110.88;;;11.29;54.83
10470;BME280;5282;47.052;15.458;2024-02-21T11:12:03;98095.50;;;11.48;53.35
10470;BME280;5282;47.052;15.458;2024-02-21T11:14:30;98088.94;;;11.85;52.69
10470;BME280;5282;47.052;15.458;2024-02-21T11:17:01;98089.09;;;11.49;51.47
10470;BME280;5282;47.052;15.458;2024-02-21T11:19:30;98089.19;;;11.39;55.16
10470;BME280;5282;47.052;15.458;2024-02-21T11:21:59;98076.13;;;11.79;52.64
10470;BME280;5282;47.052;15.458;2024-02-21T11:24:27;98078.94;;;11.77;52.34
10470;BME280;5282;47.052;15.458;2024-02-21T11:26:55;98077.22;;;12.02;52.28
10470;BME280;5282;47.052;15.458;2024-02-21T11:29:23;98065.78;;;12.17;52.34
10470;BME280;5282;47.052;15.458;2024-02-21T11:31:51;98059.81;;;12.48;50.42
10470;BME280;5282;47.052;15.458;2024-02-21T11:34:18;98056.22;;;13.22;48.91
10470;BME280;5282;47.052;15.458;2024-02-21T11:36:51;98051.69;;;12.98;46.93
10470;BME280;5282;47.052;15.458;2024-02-21T11:39:19;98045.53;;;13.37;46.40
10470;BME280;5282;47.052;15.458;2024-02-21T11:41:47;98041.81;;;13.30;45.44
10470;BME280;5282;47.052;15.458;2024-02-21T11:44:14;98028.69;;;13.26;46.45
10470;BME280;5282;47.052;15.458;2024-02-21T11:46:41;98023.88;;;13.62;45.70
10470;BME280;5282;47.052;15.458;2024-02-21T11:49:09;98023.88;;;13.53;45.63
10470;BME280;5282;47.052;15.458;2024-02-21T11:51:36;98008.25;;;13.72;42.13
10470;BME280;5282;47.052;15.458;2024-02-21T11:54:05;98004.97;;;13.37;41.04
10470;BME280;5282;47.052;15.458;2024-02-21T11:56:32;97991.09;;;12.75;42.99
10470;BME280;5282;47.052;15.458;2024-02-21T11:58:59;97998.66;;;12.72;45.34
10470;BME280;5282;47.052;15.458;2024-02-21T12:01:26;97983.97;;;12.91;45.84
10470;BME280;5282;47.052;15.458;2024-02-21T12:03:53;97979.22;;;12.93;43.45
10470;BME280;5282;47.052;15.458;2024-02-21T12:06:21;97985.00;;;12.81;44.74
10470;BME280;5282;47.052;15.458;2024-02-21T12:08:48;97981.22;;;13.07;43.75
10470;BME280;5282;47.052;15.458;2024-02-21T12:11:19;97977.16;;;13.20;44.27
10470;BME280;5282;47.052;15.458;2024-02-21T12:13:46;97977.78;;;13.30;43.54
10470;BME280;5282;47.052;15.458;2024-02-21T12:16:15;97972.38;;;13.30;44.48
10470;BME280;5282;47.052;15.458;2024-02-21T12:18:42;97978.53;;;13.07;43.65
10470;BME280;5282;47.052;15.458;2024-02-21T12:21:10;97980.94;;;12.77;44.17
10470;BME280;5282;47.052;15.458;2024-02-21T12:23:38;97969.28;;;12.93;45.18
10470;BME280;5282;47.052;15.458;2024-02-21T12:26:05;97966.09;;;12.57;44.62
10470;BME280;5282;47.052;15.458;2024-02-21T12:28:34;97954.06;;;12.84;44.24
10470;BME280;5282;47.052;15.458;2024-02-21T12:31:01;97949.03;;;12.73;44.27
10470;BME280;5282;47.052;15.458;2024-02-21T12:33:30;97936.25;;;12.58;44.51
10470;BME280;5282;47.052;15.458;2024-02-21T12:35:57;97940.97;;;12.40;44.19
10470;BME280;5282;47.052;15.458;2024-02-21T12:38:24;97932.00;;;12.64;43.92
10470;BME280;5282;47.052;15.458;2024-02-21T12:40:51;97933.47;;;12.91;44.00
10470;BME280;5282;47.052;15.458;2024-02-21T12:43:18;97930.63;;;12.85;43.49
10470;BME280;5282;47.052;15.458;2024-02-21T12:45:47;97924.81;;;13.04;43.88
10470;BME280;5282;47.052;15.458;2024-02-21T12:48:14;97922.94;;;13.13;42.31
10470;BME280;5282;47.052;15.458;2024-02-21T12:50:48;97921.53;;;13.25;41.88
10470;BME280;5282;47.052;15.458;2024-02-21T12:53:15;97923.91;;;13.68;40.93
10470;BME280;5282;47.052;15.458;2024-02-21T12:55:43;97921.44;;;14.05;39.28
10470;BME280;5282;47.052;15.458;2024-02-21T12:58:10;97922.28;;;13.82;38.91
10470;BME280;5282;47.052;15.458;2024-02-21T13:00:37;97912.13;;;14.08;40.28
10470;BME280;5282;47.052;15.458;2024-02-21T13:03:05;97918.78;;;13.73;39.09
10470;BME280;5282;47.052;15.458;2024-02-21T13:05:33;97914.72;;;13.69;40.23
10470;BME280;5282;47.052;15.458;2024-02-21T13:08:00;97897.25;;;13.80;40.24
10470;BME280;5282;47.052;15.458;2024-02-21T13:10:27;97907.88;;;13.58;41.00